createdAt,value
2018-05-14T00:01:08.770Z,13.69
2018-05-14T00:03:36.880Z,13.64
2018-05-14T00:06:05.810Z,13.42
2018-05-14T00:08:33.909Z,13.59
2018-05-14T00:11:02.017Z,13.54
2018-05-14T00:13:30.135Z,13.49
2018-05-14T00:15:58.238Z,13.52
2018-05-14T00:18:26.369Z,13.35
2018-05-14T00:20:54.554Z,13.30
2018-05-14T00:23:22.657Z,13.18
2018-05-14T00:25:51.026Z,13.26
2018-05-14T00:28:19.150Z,13.14
2018-05-14T00:30:48.123Z,13.10
2018-05-14T00:33:16.245Z,13.27
2018-05-14T00:35:45.660Z,13.26
2018-05-14T00:38:13.748Z,13.25
2018-05-14T00:40:41.876Z,13.06
2018-05-14T00:43:10.273Z,12.98
2018-05-14T00:45:38.376Z,13.06
2018-05-14T00:48:06.509Z,12.94
2018-05-14T00:50:34.639Z,13.23
2018-05-14T00:53:02.733Z,13.29
2018-05-14T00:55:30.848Z,13.25
2018-05-14T00:57:58.973Z,13.22
2018-05-14T01:00:27.068Z,13.01
2018-05-14T01:02:55.197Z,13.09
2018-05-14T01:05:23.308Z,12.96
2018-05-14T01:07:51.408Z,12.98
2018-05-14T01:10:20.312Z,13.07
2018-05-14T01:12:48.441Z,13.03
2018-05-14T01:15:16.542Z,12.89
2018-05-14T01:17:44.662Z,12.88
2018-05-14T01:20:12.854Z,12.98
2018-05-14T01:22:40.953Z,13.06
2018-05-14T01:25:09.070Z,13.23
2018-05-14T01:27:37.201Z,13.12
2018-05-14T01:30:05.300Z,13.06
2018-05-14T01:32:33.418Z,13.02
2018-05-14T01:35:01.545Z,12.90
2018-05-14T01:37:29.650Z,12.97
2018-05-14T01:39:58.060Z,13.05
2018-05-14T01:42:26.218Z,13.05
2018-05-14T01:44:54.360Z,12.96
2018-05-14T01:47:22.460Z,12.98
2018-05-14T01:49:50.609Z,12.99
2018-05-14T01:52:18.718Z,12.93
2018-05-14T01:54:47.741Z,12.89
2018-05-14T01:57:16.725Z,12.99
2018-05-14T01:59:44.873Z,13.15
2018-05-14T02:02:13.032Z,13.18
2018-05-14T02:04:45.935Z,13.17
2018-05-14T02:07:14.961Z,13.16
2018-05-14T02:09:43.074Z,12.94
2018-05-14T02:12:11.188Z,12.97
2018-05-14T02:14:39.357Z,12.95
2018-05-14T02:17:07.471Z,12.93
2018-05-14T02:19:35.605Z,13.08
2018-05-14T02:22:03.760Z,13.10
2018-05-14T02:24:31.879Z,12.92
2018-05-14T02:27:02.013Z,12.98
2018-05-14T02:29:30.119Z,13.06
2018-05-14T02:31:58.208Z,12.97
2018-05-14T02:34:26.343Z,12.84
2018-05-14T02:36:54.499Z,12.87
2018-05-14T02:39:22.597Z,12.98
2018-05-14T02:41:50.717Z,12.78
2018-05-14T02:44:18.851Z,12.67
2018-05-14T02:46:46.958Z,12.95
2018-05-14T02:49:15.084Z,12.97
2018-05-14T02:51:43.210Z,12.89
2018-05-14T02:54:11.305Z,12.82
2018-05-14T02:56:39.434Z,12.78
2018-05-14T02:59:07.552Z,12.80
2018-05-14T03:01:35.739Z,12.97
2018-05-14T03:04:03.874Z,12.88
2018-05-14T03:06:32.020Z,12.80
2018-05-14T03:09:00.161Z,12.69
2018-05-14T03:11:28.254Z,12.48
2018-05-14T03:13:56.373Z,12.57
2018-05-14T03:16:24.497Z,12.47
2018-05-14T03:18:52.642Z,12.52
2018-05-14T03:21:20.811Z,12.50
2018-05-14T03:23:48.920Z,12.55
2018-05-14T03:26:17.026Z,12.46
2018-05-14T03:28:45.195Z,12.42
2018-05-14T03:31:13.374Z,12.51
2018-05-14T03:33:41.489Z,12.38
2018-05-14T03:36:09.595Z,12.31
2018-05-14T03:38:37.721Z,12.37
2018-05-14T03:41:05.830Z,12.17
2018-05-14T03:43:33.955Z,12.10
2018-05-14T03:46:02.101Z,12.20
2018-05-14T03:48:30.198Z,12.39
2018-05-14T03:50:58.308Z,12.45
2018-05-14T03:53:26.433Z,12.54
2018-05-14T03:55:54.545Z,12.42
2018-05-14T03:58:34.559Z,12.35
2018-05-14T04:01:15.521Z,12.27
2018-05-14T04:04:01.100Z,12.40
2018-05-14T04:06:30.059Z,12.16
2018-05-14T04:21:58.203Z,12.39
2018-05-14T04:24:27.220Z,12.44
2018-05-14T04:26:55.289Z,12.46
2018-05-14T04:29:23.417Z,12.67
2018-05-14T04:31:51.535Z,12.75
2018-05-14T04:34:19.697Z,12.60
2018-05-14T04:36:47.815Z,12.54
2018-05-14T04:39:15.917Z,12.38
2018-05-14T04:41:44.067Z,12.51
2018-05-14T04:44:12.163Z,12.45
2018-05-14T04:46:40.320Z,12.43
2018-05-14T04:49:08.409Z,12.60
2018-05-14T04:51:36.561Z,12.55
2018-05-14T04:54:05.470Z,12.54
2018-05-14T04:56:33.583Z,12.47
2018-05-14T04:59:01.680Z,12.50
2018-05-14T05:01:29.796Z,12.54
2018-05-14T05:03:57.926Z,12.37
2018-05-14T05:06:26.038Z,12.52
2018-05-14T05:08:54.365Z,12.27
2018-05-14T05:11:22.500Z,12.33
2018-05-14T05:13:50.618Z,12.30
2018-05-14T05:16:18.718Z,12.28
2018-05-14T05:18:52.328Z,12.36
2018-05-14T05:21:26.021Z,12.50
2018-05-14T05:23:54.239Z,12.48
2018-05-14T05:26:22.354Z,12.41
2018-05-14T05:28:50.501Z,12.38
2018-05-14T05:31:18.628Z,12.51
2018-05-14T05:33:46.777Z,12.46
2018-05-14T05:36:14.892Z,12.64
2018-05-14T05:38:43.032Z,12.77
2018-05-14T05:41:11.144Z,12.82
2018-05-14T05:43:39.270Z,12.82
2018-05-14T05:46:07.414Z,12.95
2018-05-14T05:48:35.524Z,12.86
2018-05-14T05:51:03.637Z,12.91
2018-05-14T05:53:31.766Z,12.86
2018-05-14T05:55:59.868Z,12.77
2018-05-14T05:58:27.978Z,12.74
2018-05-14T06:00:56.842Z,12.82
2018-05-14T06:03:24.940Z,12.89
2018-05-14T06:05:53.664Z,12.69
2018-05-14T06:08:21.781Z,12.82
2018-05-14T06:10:49.927Z,12.76
2018-05-14T06:13:18.164Z,12.86
2018-05-14T06:15:48.033Z,12.85
2018-05-14T06:18:16.136Z,12.85
2018-05-14T06:20:44.289Z,12.82
2018-05-14T06:23:12.380Z,12.80
2018-05-14T06:25:40.540Z,12.77
2018-05-14T06:28:08.639Z,12.85
2018-05-14T06:30:36.877Z,12.91
2018-05-14T06:33:04.874Z,12.82
2018-05-14T06:35:33.078Z,12.91
2018-05-14T06:38:01.156Z,12.84
2018-05-14T06:40:29.252Z,12.81
2018-05-14T06:42:57.354Z,12.88
2018-05-14T06:45:25.472Z,12.86
2018-05-14T06:47:53.590Z,12.90
2018-05-14T06:50:21.690Z,12.97
2018-05-14T06:52:49.804Z,12.93
2018-05-14T06:55:17.919Z,13.07
2018-05-14T06:57:46.046Z,13.12
2018-05-14T07:00:14.146Z,13.06
2018-05-14T07:02:42.288Z,13.14
2018-05-14T07:05:10.385Z,13.10
2018-05-14T07:07:38.502Z,13.07
2018-05-14T07:10:06.629Z,13.10
2018-05-14T07:12:35.939Z,13.07
2018-05-14T07:15:03.886Z,12.82
2018-05-14T07:17:32.040Z,12.97
2018-05-14T07:20:00.182Z,13.11
2018-05-14T07:22:28.308Z,13.20
2018-05-14T07:24:56.436Z,13.27
2018-05-14T07:27:24.538Z,13.29
2018-05-14T07:29:53.282Z,13.27
2018-05-14T07:32:21.410Z,13.26
2018-05-14T07:34:49.531Z,13.37
2018-05-14T07:37:18.290Z,13.33
2018-05-14T07:39:46.406Z,13.50
2018-05-14T07:42:14.501Z,13.59
2018-05-14T07:44:42.612Z,13.44
2018-05-14T07:47:10.728Z,13.61
2018-05-14T07:49:38.851Z,13.62
2018-05-14T07:52:07.212Z,13.53
2018-05-14T07:54:35.313Z,13.55
2018-05-14T07:57:03.462Z,13.67
2018-05-14T07:59:32.637Z,13.73
2018-05-14T08:02:01.004Z,13.81
2018-05-14T08:04:29.111Z,13.87
2018-05-14T08:06:57.241Z,13.68
2018-05-14T08:09:25.394Z,13.83
2018-05-14T08:11:53.500Z,13.95
2018-05-14T08:14:21.608Z,13.93
2018-05-14T08:16:49.734Z,13.98
2018-05-14T08:19:17.858Z,14.05
2018-05-14T08:21:45.959Z,14.02
2018-05-14T08:24:14.096Z,14.22
2018-05-14T08:26:42.274Z,14.39
2018-05-14T08:29:10.320Z,14.56
2018-05-14T08:31:42.295Z,14.77
2018-05-14T08:34:10.413Z,14.89
2018-05-14T08:36:38.796Z,14.70
2018-05-14T08:39:06.900Z,14.73
2018-05-14T08:41:35.058Z,14.85
2018-05-14T08:44:03.152Z,14.90
2018-05-14T08:46:31.274Z,14.85
2018-05-14T08:48:59.369Z,14.79
2018-05-14T08:51:27.469Z,14.97
2018-05-14T08:53:55.600Z,15.19
2018-05-14T08:56:23.709Z,15.20
2018-05-14T08:58:51.806Z,15.46
2018-05-14T09:01:20.715Z,15.51
2018-05-14T09:03:48.822Z,15.65
2018-05-14T09:06:16.928Z,15.74
2018-05-14T09:08:45.081Z,15.73
2018-05-14T09:11:13.172Z,15.98
2018-05-14T09:13:41.280Z,16.17
2018-05-14T09:16:09.385Z,16.35
2018-05-14T09:18:37.882Z,16.48
2018-05-14T09:21:06.050Z,16.57
2018-05-14T09:23:34.249Z,16.47
2018-05-14T09:26:02.360Z,16.55
2018-05-14T09:28:30.464Z,16.58
2018-05-14T09:30:58.589Z,16.68
2018-05-14T09:33:26.761Z,16.97
2018-05-14T09:35:54.910Z,16.96
2018-05-14T09:38:23.756Z,17.07
2018-05-14T09:40:52.791Z,17.16
2018-05-14T09:43:20.884Z,17.06
2018-05-14T09:45:49.000Z,17.22
2018-05-14T09:48:17.867Z,17.44
2018-05-14T09:50:45.920Z,17.43
2018-05-14T09:53:14.190Z,17.38
2018-05-14T09:55:42.300Z,17.58
2018-05-14T09:58:10.400Z,17.52
2018-05-14T10:00:38.552Z,17.52
2018-05-14T10:03:06.656Z,17.39
2018-05-14T10:05:34.778Z,17.57
2018-05-14T10:08:02.881Z,17.58
2018-05-14T10:10:31.888Z,17.88
2018-05-14T10:13:00.058Z,17.57
2018-05-14T10:15:28.162Z,17.41
2018-05-14T10:17:56.251Z,17.42
2018-05-14T10:20:24.380Z,17.53
2018-05-14T10:22:52.496Z,17.70
2018-05-14T10:25:20.627Z,17.86
2018-05-14T10:27:48.796Z,18.03
2018-05-14T10:30:16.917Z,18.03
2018-05-14T10:32:45.017Z,17.93
2018-05-14T10:35:13.143Z,17.96
2018-05-14T10:37:41.248Z,17.93
2018-05-14T10:40:09.597Z,18.05
2018-05-14T10:42:37.708Z,18.22
2018-05-14T10:45:05.869Z,18.16
2018-05-14T10:47:34.098Z,18.38
2018-05-14T10:50:02.233Z,18.42
2018-05-14T10:52:35.288Z,18.42
2018-05-14T10:55:03.421Z,18.51
2018-05-14T10:57:31.529Z,18.57
2018-05-14T10:59:59.629Z,18.62
2018-05-14T11:02:27.756Z,18.68
2018-05-14T11:04:55.861Z,18.82
2018-05-14T11:07:24.884Z,19.09
2018-05-14T11:09:53.014Z,18.95
2018-05-14T11:12:21.126Z,18.83
2018-05-14T11:14:49.225Z,18.96
2018-05-14T11:17:17.341Z,19.20
2018-05-14T11:19:45.745Z,19.23
2018-05-14T11:22:13.862Z,19.26
2018-05-14T11:24:41.982Z,19.34
2018-05-14T11:27:10.096Z,19.39
2018-05-14T11:29:38.684Z,19.45
2018-05-14T11:32:06.813Z,19.59
2018-05-14T11:34:34.937Z,19.61
2018-05-14T11:37:03.036Z,19.80
2018-05-14T11:39:31.135Z,19.86
2018-05-14T11:41:59.265Z,19.81
2018-05-14T11:44:28.068Z,19.90
2018-05-14T11:46:56.278Z,19.92
2018-05-14T11:49:24.360Z,19.87
2018-05-14T11:51:52.487Z,19.91
2018-05-14T11:54:20.589Z,19.76
2018-05-14T11:56:48.710Z,19.86
2018-05-14T11:59:16.844Z,20.00
2018-05-14T12:01:45.780Z,19.92
2018-05-14T12:04:13.909Z,19.90
2018-05-14T12:06:42.015Z,19.92
2018-05-14T12:09:10.135Z,19.89
2018-05-14T12:11:38.260Z,19.99
2018-05-14T12:14:06.356Z,20.04
2018-05-14T12:16:34.538Z,20.00
2018-05-14T12:19:02.648Z,19.91
2018-05-14T12:21:30.757Z,19.98
2018-05-14T12:23:58.866Z,20.15
2018-05-14T12:26:27.783Z,20.15
2018-05-14T12:28:55.890Z,20.16
2018-05-14T12:31:29.607Z,20.20
2018-05-14T12:33:57.718Z,20.25
2018-05-14T12:36:25.820Z,20.27
2018-05-14T12:38:54.848Z,20.38
2018-05-14T12:41:22.979Z,20.37
2018-05-14T12:43:51.117Z,20.36
2018-05-14T12:46:19.288Z,20.42
2018-05-14T12:48:47.420Z,20.39
2018-05-14T12:51:15.546Z,20.40
2018-05-14T12:53:43.685Z,20.49
2018-05-14T12:56:11.792Z,20.56
2018-05-14T12:58:40.168Z,20.84
2018-05-14T13:01:08.276Z,20.85
2018-05-14T13:03:36.381Z,20.86
2018-05-14T13:06:04.508Z,20.86
2018-05-14T13:08:32.616Z,21.02
2018-05-14T13:11:00.733Z,21.00
2018-05-14T13:13:29.485Z,20.91
2018-05-14T13:15:57.583Z,21.04
2018-05-14T13:18:25.697Z,20.92
2018-05-14T13:20:53.865Z,20.97
2018-05-14T13:23:21.960Z,21.03
2018-05-14T13:25:50.077Z,21.09
2018-05-14T13:28:18.224Z,21.29
2018-05-14T13:30:46.334Z,21.41
2018-05-14T13:33:14.473Z,21.48
2018-05-14T13:35:42.611Z,21.35
2018-05-14T13:38:10.716Z,21.25
2018-05-14T13:40:38.829Z,21.27
2018-05-14T13:43:06.949Z,21.41
2018-05-14T13:45:35.078Z,21.43
2018-05-14T13:48:03.281Z,21.47
2018-05-14T13:50:31.383Z,21.57
2018-05-14T13:52:59.487Z,21.58
2018-05-14T13:55:27.589Z,21.67
2018-05-14T13:57:55.736Z,21.74
2018-05-14T14:00:23.847Z,21.80
2018-05-14T14:02:51.957Z,21.71
2018-05-14T14:05:20.081Z,21.71
2018-05-14T14:07:53.905Z,21.77
2018-05-14T14:10:22.054Z,21.91
2018-05-14T14:12:50.181Z,22.00
2018-05-14T14:15:18.290Z,21.93
2018-05-14T14:17:46.438Z,21.94
2018-05-14T14:20:14.561Z,22.06
2018-05-14T14:22:42.677Z,22.02
2018-05-14T14:25:10.785Z,21.91
2018-05-14T14:27:38.909Z,21.93
2018-05-14T14:30:07.010Z,21.92
2018-05-14T14:32:35.115Z,21.99
2018-05-14T14:35:03.246Z,22.01
2018-05-14T14:37:31.357Z,22.19
2018-05-14T14:39:59.449Z,22.16
2018-05-14T14:42:27.574Z,22.21
2018-05-14T14:44:55.697Z,22.18
2018-05-14T14:47:23.805Z,22.23
2018-05-14T14:49:51.929Z,22.26
2018-05-14T14:52:20.367Z,22.32
2018-05-14T14:54:48.470Z,22.19
2018-05-14T14:57:16.578Z,22.11
2018-05-14T14:59:44.997Z,22.18
2018-05-14T15:02:13.113Z,22.07
2018-05-14T15:04:41.228Z,22.02
2018-05-14T15:07:09.366Z,22.06
2018-05-14T15:09:37.512Z,21.84
2018-05-14T15:12:05.631Z,21.75
2018-05-14T15:14:33.762Z,21.75
2018-05-14T15:17:01.934Z,21.64
2018-05-14T15:19:30.042Z,21.58
2018-05-14T15:21:59.114Z,21.39
2018-05-14T15:24:27.217Z,21.22
2018-05-14T15:26:55.325Z,21.18
2018-05-14T15:29:23.434Z,21.16
2018-05-14T15:31:51.665Z,21.15
2018-05-14T15:34:19.781Z,21.05
2018-05-14T15:36:47.886Z,20.96
2018-05-14T15:39:16.836Z,20.86
2018-05-14T15:41:44.945Z,20.90
2018-05-14T15:44:13.050Z,20.94
2018-05-14T15:46:41.225Z,20.91
2018-05-14T15:49:09.846Z,20.82
2018-05-14T15:51:37.969Z,20.74
2018-05-14T15:54:06.099Z,20.66
2018-05-14T15:56:34.217Z,20.68
2018-05-14T15:59:02.294Z,20.55
2018-05-14T16:01:30.415Z,20.43
2018-05-14T16:03:58.525Z,20.31
2018-05-14T16:06:26.738Z,20.33
2018-05-14T16:08:54.859Z,20.33
2018-05-14T16:11:22.963Z,20.30
2018-05-14T16:13:51.091Z,20.22
2018-05-14T16:16:19.217Z,20.17
2018-05-14T16:18:47.399Z,20.12
2018-05-14T16:21:15.507Z,20.11
2018-05-14T16:23:43.623Z,20.16
2018-05-14T16:26:11.725Z,20.15
2018-05-14T16:28:39.846Z,20.11
2018-05-14T16:31:07.981Z,20.12
2018-05-14T16:33:36.109Z,20.03
2018-05-14T16:36:04.229Z,19.99
2018-05-14T16:38:34.001Z,20.04
2018-05-14T16:41:02.149Z,20.08
2018-05-14T16:43:30.255Z,20.15
2018-05-14T16:45:58.381Z,20.20
2018-05-14T16:48:27.311Z,20.21
2018-05-14T16:50:55.461Z,20.14
2018-05-14T16:53:23.613Z,20.05
2018-05-14T16:55:51.737Z,20.06
2018-05-14T16:58:19.945Z,20.04
2018-05-14T17:00:48.062Z,19.99
2018-05-14T17:03:16.171Z,19.94
2018-05-14T17:05:44.285Z,19.89
2018-05-14T17:08:12.387Z,19.91
2018-05-14T17:10:40.592Z,19.98
2018-05-14T17:13:08.715Z,19.99
2018-05-14T17:15:36.846Z,19.86
2018-05-14T17:18:04.945Z,19.71
2018-05-14T17:20:33.062Z,19.60
2018-05-14T17:23:01.172Z,19.65
2018-05-14T17:25:29.296Z,19.61
2018-05-14T17:27:57.481Z,19.40
2018-05-14T17:30:25.641Z,19.35
2018-05-14T17:32:53.744Z,19.28
2018-05-14T17:35:21.855Z,19.19
2018-05-14T17:37:49.971Z,19.26
2018-05-14T17:40:18.094Z,19.18
2018-05-14T17:42:46.212Z,19.20
2018-05-14T17:45:14.337Z,19.14
2018-05-14T17:47:42.456Z,19.09
2018-05-14T17:50:10.596Z,18.97
2018-05-14T17:52:38.712Z,18.92
2018-05-14T17:55:06.828Z,18.84
2018-05-14T17:57:35.744Z,18.90
2018-05-14T18:00:04.632Z,18.91
2018-05-14T18:02:32.742Z,18.90
2018-05-14T18:05:00.862Z,18.82
2018-05-14T18:07:29.030Z,18.80
2018-05-14T18:09:57.185Z,18.74
2018-05-14T18:12:25.301Z,18.74
2018-05-14T18:14:53.432Z,18.75
2018-05-14T18:17:21.615Z,18.64
2018-05-14T18:19:55.222Z,18.66
2018-05-14T18:22:26.058Z,18.57
2018-05-14T18:25:00.044Z,18.48
2018-05-14T18:27:32.414Z,18.48
2018-05-14T18:30:06.972Z,18.51
2018-05-14T18:32:35.217Z,18.51
2018-05-14T18:35:09.306Z,18.53
2018-05-14T18:37:37.428Z,18.63
2018-05-14T18:40:05.588Z,18.59
2018-05-14T18:42:33.737Z,18.56
2018-05-14T18:45:01.863Z,18.59
2018-05-14T18:47:31.694Z,18.58
2018-05-14T18:50:00.200Z,18.52
2018-05-14T18:52:28.302Z,18.53
2018-05-14T18:54:56.415Z,18.46
2018-05-14T18:57:24.554Z,18.28
2018-05-14T18:59:52.717Z,18.25
2018-05-14T19:02:20.864Z,18.25
2018-05-14T19:04:48.986Z,18.30
2018-05-14T19:07:17.081Z,18.24
2018-05-14T19:09:45.255Z,18.15
2018-05-14T19:12:13.364Z,18.16
2018-05-14T19:14:41.478Z,18.17
2018-05-14T19:20:15.216Z,18.04
2018-05-14T19:22:48.890Z,17.97
2018-05-14T19:25:17.001Z,17.95
2018-05-14T19:27:50.654Z,17.91
2018-05-14T19:30:18.772Z,17.91
2018-05-14T19:32:46.889Z,17.92
2018-05-14T19:35:20.690Z,17.76
2018-05-14T19:37:48.798Z,17.73
2018-05-14T19:40:22.563Z,17.80
2018-05-14T19:42:50.678Z,17.81
2018-05-14T19:45:18.794Z,17.71
2018-05-14T19:47:46.920Z,17.69
2018-05-14T19:50:15.035Z,17.62
2018-05-14T19:52:43.374Z,17.52
2018-05-14T19:55:11.484Z,17.51
2018-05-14T19:57:39.610Z,17.47
2018-05-14T20:00:07.747Z,17.48
2018-05-14T20:02:35.878Z,17.64
2018-05-14T20:05:04.104Z,17.64
2018-05-14T20:07:32.217Z,17.56
2018-05-14T20:10:00.342Z,17.50
2018-05-14T20:12:28.451Z,17.57
2018-05-14T20:14:56.587Z,17.57
2018-05-14T20:17:24.730Z,17.52
2018-05-14T20:19:52.848Z,17.53
2018-05-14T20:22:21.012Z,17.57
2018-05-14T20:24:49.120Z,17.57
2018-05-14T20:27:17.700Z,17.51
2018-05-14T20:29:45.876Z,17.47
2018-05-14T20:32:14.011Z,17.37
2018-05-14T20:34:42.142Z,17.34
2018-05-14T20:37:10.398Z,17.36
2018-05-14T20:39:38.404Z,17.48
2018-05-14T20:42:06.523Z,17.40
2018-05-14T20:44:34.636Z,17.52
2018-05-14T20:47:02.762Z,17.53
2018-05-14T20:49:30.906Z,17.42
2018-05-14T20:51:59.025Z,17.43
2018-05-14T20:54:27.968Z,17.40
2018-05-14T20:56:56.086Z,17.53
2018-05-14T20:59:25.030Z,17.50
2018-05-14T21:01:53.142Z,17.43
2018-05-14T21:04:21.246Z,17.42
2018-05-14T21:06:49.362Z,17.36
2018-05-14T21:09:17.514Z,17.38
2018-05-14T21:11:45.690Z,17.43
2018-05-14T21:14:13.826Z,17.30
2018-05-14T21:16:42.030Z,17.41
2018-05-14T21:19:10.174Z,17.37
2018-05-14T21:21:39.046Z,17.42
2018-05-14T21:24:07.275Z,17.34
2018-05-14T21:26:35.457Z,17.38
2018-05-14T21:29:03.982Z,17.38
2018-05-14T21:31:32.165Z,17.41
2018-05-14T21:34:02.290Z,17.37
2018-05-14T21:36:30.780Z,17.41
2018-05-14T21:38:58.934Z,17.45
2018-05-14T21:54:22.123Z,17.28
2018-05-14T21:56:50.270Z,17.28
2018-05-14T21:59:18.712Z,17.40
2018-05-14T22:01:46.910Z,17.30
2018-05-14T22:04:15.148Z,17.31
2018-05-14T22:06:44.463Z,17.23
2018-05-14T22:09:13.172Z,17.23
2018-05-14T22:11:41.338Z,17.21
2018-05-14T22:14:09.441Z,17.25
2018-05-14T22:16:38.556Z,17.31
2018-05-14T22:19:06.952Z,17.34
2018-05-14T22:21:35.242Z,17.27
2018-05-14T22:24:03.370Z,17.30
2018-05-14T22:26:31.564Z,17.24
2018-05-14T22:29:00.670Z,17.32
2018-05-14T22:31:28.806Z,17.37
2018-05-14T22:33:57.266Z,17.33
2018-05-14T22:36:25.380Z,17.36
2018-05-14T22:38:53.530Z,17.36
2018-05-14T22:41:22.658Z,17.26
2018-05-14T22:43:52.223Z,17.38
2018-05-14T22:46:21.147Z,17.23
2018-05-14T22:48:50.998Z,17.23
2018-05-14T22:51:19.222Z,17.20
2018-05-14T22:53:47.429Z,17.13
2018-05-14T22:56:20.514Z,17.19
2018-05-14T22:58:48.672Z,17.20
2018-05-14T23:01:16.843Z,17.22
2018-05-14T23:03:45.032Z,17.17
2018-05-14T23:06:14.186Z,17.22
2018-05-14T23:08:44.112Z,17.21
2018-05-14T23:11:12.232Z,17.21
2018-05-14T23:13:40.802Z,17.12
2018-05-14T23:16:09.450Z,17.18
2018-05-14T23:18:37.802Z,17.18
2018-05-14T23:21:06.833Z,17.14
2018-05-14T23:23:36.728Z,17.13
2018-05-14T23:26:05.009Z,17.11
2018-05-14T23:28:33.251Z,17.18
2018-05-14T23:31:01.381Z,17.17
2018-05-14T23:33:29.491Z,17.22
2018-05-14T23:35:58.991Z,17.16
2018-05-14T23:38:27.123Z,17.20
2018-05-14T23:40:55.247Z,17.07
2018-05-14T23:43:24.081Z,17.16
2018-05-14T23:45:52.568Z,17.08
2018-05-14T23:48:21.259Z,17.01
2018-05-14T23:50:50.258Z,16.94
2018-05-14T23:53:18.370Z,16.95
2018-05-14T23:55:46.498Z,16.86
2018-05-14T23:58:14.604Z,16.86
